createdAt,value
2023-02-01T00:01:20.401Z,6.38
2023-02-01T00:06:26.621Z,7.47
2023-02-01T00:11:31.334Z,5.93
2023-02-01T00:16:35.904Z,4.93
2023-02-01T00:21:41.881Z,4.72
2023-02-01T00:26:47.886Z,4.43
2023-02-01T00:31:54.177Z,4.95
2023-02-01T00:37:01.405Z,4.20
2023-02-01T00:42:06.173Z,3.92
2023-02-01T00:47:10.810Z,4.00
2023-02-01T00:52:17.192Z,3.20
2023-02-01T00:57:21.724Z,3.45
2023-02-01T01:02:28.768Z,6.70
2023-02-01T01:07:35.216Z,6.38
2023-02-01T01:12:39.754Z,3.40
2023-02-01T01:17:44.416Z,2.55
2023-02-01T01:22:50.495Z,2.80
2023-02-01T01:27:54.998Z,2.95
2023-02-01T01:32:59.495Z,3.65
2023-02-01T01:38:06.053Z,2.88
2023-02-01T01:43:16.349Z,2.50
2023-02-01T01:48:29.777Z,3.47
2023-02-01T01:53:40.278Z,2.92
2023-02-01T01:58:44.991Z,3.17
2023-02-01T02:03:50.804Z,3.10
2023-02-01T02:14:02.458Z,2.70
2023-02-01T02:19:35.416Z,2.53
2023-02-01T02:25:07.453Z,2.30
2023-02-01T02:30:44.104Z,2.22
2023-02-01T02:35:57.545Z,2.25
2023-02-01T02:41:35.526Z,2.90
2023-02-01T02:47:06.437Z,2.97
2023-02-01T02:52:35.742Z,2.58
2023-02-01T02:58:02.017Z,3.30
2023-02-01T03:03:24.440Z,2.95
2023-02-01T03:08:33.437Z,3.45
2023-02-01T03:13:44.599Z,3.00
2023-02-01T03:18:56.439Z,3.70
2023-02-01T03:24:08.797Z,3.05
2023-02-01T03:29:18.770Z,3.30
2023-02-01T03:34:24.073Z,2.83
2023-02-01T03:39:36.848Z,2.65
2023-02-01T03:44:46.995Z,3.83
2023-02-01T03:49:56.582Z,2.80
2023-02-01T03:55:03.833Z,2.65
2023-02-01T04:00:11.153Z,2.45
2023-02-01T04:05:19.040Z,2.33
2023-02-01T04:10:45.778Z,2.53
2023-02-01T04:15:51.821Z,3.00
2023-02-01T04:20:56.514Z,3.17
2023-02-01T04:26:07.021Z,3.22
2023-02-01T04:31:11.589Z,2.72
2023-02-01T04:36:20.711Z,3.60
2023-02-01T04:41:26.583Z,2.40
2023-02-01T04:46:31.456Z,3.03
2023-02-01T04:51:35.923Z,3.03
2023-02-01T04:56:42.113Z,2.30
2023-02-01T05:01:48.863Z,2.50
2023-02-01T05:06:53.506Z,2.53
2023-02-01T05:12:16.659Z,2.35
2023-02-01T05:17:21.434Z,4.20
2023-02-01T05:22:26.104Z,2.95
2023-02-01T05:32:38.539Z,2.97
2023-02-01T05:37:42.921Z,2.20
2023-02-01T05:42:49.029Z,2.35
2023-02-01T05:47:53.734Z,2.97
2023-02-01T05:52:58.263Z,2.30
2023-02-01T05:58:04.150Z,3.33
2023-02-01T06:03:09.549Z,2.90
2023-02-01T06:08:14.321Z,3.17
2023-02-01T06:13:21.563Z,2.40
2023-02-01T06:18:26.421Z,3.63
2023-02-01T06:23:31.792Z,2.40
2023-02-01T06:28:37.893Z,2.83
2023-02-01T06:33:42.866Z,4.15
2023-02-01T06:39:02.589Z,4.18
2023-02-01T06:44:08.472Z,2.47
2023-02-01T06:49:13.527Z,3.53
2023-02-01T06:54:18.471Z,2.80
2023-02-01T06:59:24.695Z,3.07
2023-02-01T07:04:29.212Z,5.28
2023-02-01T07:09:33.924Z,4.68
2023-02-01T07:14:39.775Z,3.53
2023-02-01T07:19:47.178Z,4.15
2023-02-01T07:24:51.813Z,6.10
2023-02-01T07:29:57.848Z,5.05
2023-02-01T07:35:02.291Z,3.85
2023-02-01T07:40:08.104Z,4.70
2023-02-01T07:50:31.670Z,5.03
2023-02-01T07:55:37.691Z,4.20
2023-02-01T08:01:01.342Z,4.35
2023-02-01T08:06:07.533Z,4.38
2023-02-01T08:11:12.034Z,4.80
2023-02-01T08:16:20.012Z,4.93
2023-02-01T08:21:27.018Z,5.05
2023-02-01T08:26:31.498Z,4.20
2023-02-01T08:31:37.535Z,4.53
2023-02-01T08:36:43.447Z,4.38
2023-02-01T08:42:09.983Z,5.55
2023-02-01T08:47:15.914Z,5.05
2023-02-01T08:52:20.545Z,4.18
2023-02-01T08:57:26.181Z,4.65
2023-02-01T09:02:32.149Z,4.28
2023-02-01T09:07:37.264Z,4.35
2023-02-01T09:12:42.014Z,5.07
2023-02-01T09:17:47.979Z,4.15
2023-02-01T09:22:53.483Z,4.80
2023-02-01T09:27:57.976Z,4.32
2023-02-01T09:33:04.341Z,5.00
2023-02-01T09:38:08.936Z,4.63
2023-02-01T09:43:24.152Z,4.43
2023-02-01T09:48:34.814Z,4.53
2023-02-01T09:53:43.327Z,8.43
2023-02-01T09:58:54.999Z,5.07
2023-02-01T10:04:05.494Z,6.05
2023-02-01T10:09:22.035Z,6.22
2023-02-01T10:14:51.541Z,4.20
2023-02-01T10:20:06.981Z,4.97
2023-02-01T10:25:21.142Z,5.18
2023-02-01T10:30:29.731Z,5.20
2023-02-01T10:35:39.801Z,5.35
2023-02-01T10:40:44.890Z,4.28
2023-02-01T10:45:49.687Z,5.95
2023-02-01T10:51:00.752Z,4.50
2023-02-01T10:56:09.899Z,5.40
2023-02-01T11:01:21.260Z,5.28
2023-02-01T11:06:31.044Z,4.95
2023-02-01T11:11:54.507Z,5.03
2023-02-01T11:17:01.474Z,4.75
2023-02-01T11:22:08.089Z,5.05
2023-02-01T11:27:26.679Z,6.00
2023-02-01T11:32:33.260Z,6.40
2023-02-01T11:37:43.502Z,4.80
2023-02-01T11:42:57.208Z,5.40
2023-02-01T11:48:02.275Z,4.78
2023-02-01T11:53:27.745Z,4.47
2023-02-01T11:58:52.927Z,4.53
2023-02-01T12:04:28.962Z,4.90
2023-02-01T12:09:49.777Z,4.47
2023-02-01T12:15:08.604Z,4.35
2023-02-01T12:20:24.898Z,5.32
2023-02-01T12:25:42.400Z,4.38
2023-02-01T12:31:11.167Z,4.25
2023-02-01T12:36:21.296Z,4.97
2023-02-01T12:41:54.373Z,5.30
2023-02-01T12:47:03.460Z,6.55
2023-02-01T12:52:14.662Z,8.15
2023-02-01T12:57:28.829Z,8.80
2023-02-01T13:02:41.625Z,6.65
2023-02-01T13:07:52.975Z,4.95
2023-02-01T13:13:04.572Z,3.67
2023-02-01T13:18:14.469Z,4.55
2023-02-01T13:23:27.379Z,5.47
2023-02-01T13:28:48.759Z,4.10
2023-02-01T13:34:25.635Z,5.30
2023-02-01T13:40:13.362Z,10.20
2023-02-01T13:45:23.514Z,6.55
2023-02-01T13:50:32.358Z,7.07
2023-02-01T13:55:40.404Z,5.63
2023-02-01T14:00:46.708Z,5.95
2023-02-01T14:06:05.134Z,7.65
2023-02-01T14:11:37.233Z,7.70
2023-02-01T14:16:43.317Z,8.38
2023-02-01T14:22:00.945Z,6.63
2023-02-01T14:27:20.072Z,6.97
2023-02-01T14:32:27.658Z,6.80
2023-02-01T14:37:36.741Z,6.85
2023-02-01T14:42:46.537Z,8.15
2023-02-01T14:47:55.466Z,8.75
2023-02-01T14:53:21.595Z,6.93
2023-02-01T15:03:58.441Z,12.52
2023-02-01T15:09:06.329Z,7.68
2023-02-01T15:14:16.902Z,9.57
2023-02-01T15:19:24.577Z,12.50
2023-02-01T15:24:30.698Z,9.98
2023-02-01T15:29:35.285Z,9.73
2023-02-01T15:34:51.529Z,9.10
2023-02-01T15:40:23.088Z,8.27
2023-02-01T15:45:30.260Z,3.95
2023-02-01T15:50:36.208Z,4.80
2023-02-01T15:55:43.603Z,4.30
2023-02-01T16:00:51.400Z,3.47
2023-02-01T16:06:02.293Z,5.70
2023-02-01T16:11:31.529Z,5.30
2023-02-01T16:16:36.418Z,7.75
2023-02-01T16:21:42.683Z,6.27
2023-02-01T16:26:47.371Z,11.80
2023-02-01T16:31:52.477Z,7.43
2023-02-01T16:36:58.631Z,8.00
2023-02-01T16:42:07.748Z,10.32
2023-02-01T16:47:17.139Z,6.78
2023-02-01T16:52:24.893Z,7.30
2023-02-01T16:57:30.502Z,7.05
2023-02-01T17:07:43.585Z,8.68
2023-02-01T17:12:48.320Z,7.32
2023-02-01T17:17:55.251Z,7.07
2023-02-01T17:23:08.808Z,7.97
2023-02-01T17:28:13.628Z,6.38
2023-02-01T17:33:25.477Z,5.83
2023-02-01T17:38:32.355Z,7.15
2023-02-01T17:43:37.195Z,9.00
2023-02-01T17:48:42.788Z,9.23
2023-02-01T17:53:50.665Z,8.68
2023-02-01T17:59:00.300Z,13.05
2023-02-01T18:04:14.931Z,12.70
2023-02-01T18:09:26.828Z,9.30
2023-02-01T18:14:36.812Z,7.53
2023-02-01T18:19:44.538Z,8.63
2023-02-01T18:24:53.875Z,14.13
2023-02-01T18:29:58.450Z,16.48
2023-02-01T18:35:04.413Z,12.95
2023-02-01T18:40:14.993Z,9.30
2023-02-01T18:45:28.553Z,8.15
2023-02-01T18:50:35.103Z,6.88
2023-02-01T18:55:44.894Z,6.93
2023-02-01T19:00:55.538Z,7.85
2023-02-01T19:06:00.416Z,6.13
2023-02-01T19:11:09.908Z,7.35
2023-02-01T19:16:15.297Z,6.57
2023-02-01T19:21:19.861Z,6.47
2023-02-01T19:26:25.752Z,6.93
2023-02-01T19:31:30.771Z,6.57
2023-02-01T19:36:41.508Z,5.53
2023-02-01T19:41:48.504Z,9.05
2023-02-01T19:46:52.977Z,5.95
2023-02-01T19:51:57.719Z,8.68
2023-02-01T19:57:04.036Z,14.83
2023-02-01T20:02:10.131Z,11.30
2023-02-01T20:07:14.955Z,10.40
2023-02-01T20:12:21.208Z,7.33
2023-02-01T20:17:25.988Z,10.18
2023-02-01T20:22:31.023Z,9.68
2023-02-01T20:27:38.095Z,9.05
2023-02-01T20:32:42.695Z,8.23
2023-02-01T20:37:47.144Z,8.02
2023-02-01T20:42:53.063Z,8.85
2023-02-01T20:47:57.597Z,12.70
2023-02-01T20:53:02.931Z,7.95
2023-02-01T20:58:08.797Z,8.20
2023-02-01T21:03:13.270Z,7.32
2023-02-01T21:08:18.507Z,7.68
2023-02-01T21:13:24.769Z,7.60
2023-02-01T21:18:29.363Z,7.75
2023-02-01T21:23:34.104Z,9.20
2023-02-01T21:28:40.563Z,9.13
2023-02-01T21:33:46.973Z,15.73
2023-02-01T21:38:55.194Z,13.35
2023-02-01T21:44:01.244Z,20.38
2023-02-01T21:49:08.993Z,19.33
2023-02-01T21:54:14.017Z,14.15
2023-02-01T21:59:20.065Z,12.63
2023-02-01T22:04:25.000Z,16.42
2023-02-01T22:09:29.678Z,9.60
2023-02-01T22:14:35.947Z,7.35
2023-02-01T22:19:40.848Z,6.22
2023-02-01T22:24:45.455Z,8.73
2023-02-01T22:29:51.631Z,8.60
2023-02-01T22:34:56.235Z,14.75
2023-02-01T22:40:02.295Z,9.63
2023-02-01T22:45:09.382Z,6.45
2023-02-01T22:50:13.878Z,7.82
2023-02-01T22:55:18.572Z,13.68
2023-02-01T23:00:25.754Z,10.57
2023-02-01T23:05:41.884Z,11.07
2023-02-01T23:10:59.902Z,5.85
2023-02-01T23:16:08.725Z,6.68
2023-02-01T23:21:15.038Z,11.90
2023-02-01T23:26:20.744Z,8.32
2023-02-01T23:36:33.872Z,9.57
2023-02-01T23:41:38.805Z,17.42
2023-02-01T23:46:48.293Z,9.88
2023-02-01T23:51:53.425Z,7.20
2023-02-01T23:56:57.965Z,11.63
